Time;durP1;ratioP1;P1;durP2;ratioP2;P2;SDS_P1;SDS_P2;PMS_P1;PMS_P2;Temp;Humidity;BMP_temperature;BMP_pressure;BME280_temperature;BME280_humidity;BME280_pressure;Samples;Min_cycle;Max_cycle;Signal;HPM_P1;HPM_P2
2023/11/17 00:00:42;;;;;;;10.93;5.17;;;;;;;;;;4972614;28;20295;-79
2023/11/17 00:03:10;;;;;;;10.03;5.97;;;;;;;;;;4973062;28;20199;-80
2023/11/17 00:05:38;;;;;;;7.93;5.07;;;;;;;;;;4972599;28;20280;-79
2023/11/17 00:08:05;;;;;;;12.17;5.30;;;;;;;;;;4973015;28;20289;-79
2023/11/17 00:10:33;;;;;;;10.10;4.97;;;;;;;;;;4972946;28;20294;-80
2023/11/17 00:13:00;;;;;;;14.10;4.87;;;;;;;;;;4972482;28;20205;-79
2023/11/17 00:15:29;;;;;;;10.00;4.77;;;;;;;;;;4972958;28;20259;-79
2023/11/17 00:17:56;;;;;;;11.23;5.00;;;;;;;;;;4972333;28;20194;-79
2023/11/17 00:20:23;;;;;;;9.63;5.03;;;;;;;;;;4972680;28;20202;-79
2023/11/17 00:22:50;;;;;;;8.47;4.63;;;;;;;;;;4972458;28;20266;-79
2023/11/17 00:25:18;;;;;;;12.13;5.17;;;;;;;;;;4971997;28;20250;-79
2023/11/17 00:27:46;;;;;;;13.17;5.57;;;;;;;;;;4972023;28;20202;-79
2023/11/17 00:30:14;;;;;;;12.47;5.67;;;;;;;;;;4972543;28;20198;-79
2023/11/17 00:32:43;;;;;;;8.57;6.33;;;;;;;;;;4972077;28;20696;-80
2023/11/17 00:35:11;;;;;;;14.47;6.90;;;;;;;;;;4972360;28;20234;-79
2023/11/17 00:37:39;;;;;;;10.27;6.67;;;;;;;;;;4972113;28;20229;-78
2023/11/17 00:40:07;;;;;;;11.43;6.87;;;;;;;;;;4972701;28;20203;-79
2023/11/17 00:42:34;;;;;;;7.83;6.07;;;;;;;;;;4971996;28;20202;-79
2023/11/17 00:45:02;;;;;;;8.93;5.60;;;;;;;;;;4971898;28;20233;-78
2023/11/17 00:47:29;;;;;;;11.73;5.80;;;;;;;;;;4972636;28;20285;-80
2023/11/17 00:49:59;;;;;;;11.70;5.17;;;;;;;;;;4972106;28;20249;-79
2023/11/17 00:52:26;;;;;;;9.43;5.00;;;;;;;;;;4971817;28;20206;-79
2023/11/17 00:54:57;;;;;;;7.83;4.80;;;;;;;;;;4971620;28;20198;-78
2023/11/17 00:57:24;;;;;;;9.50;4.67;;;;;;;;;;4971447;28;20570;-80
2023/11/17 00:59:51;;;;;;;11.97;5.30;;;;;;;;;;4971632;28;20710;-78
2023/11/17 01:02:18;;;;;;;11.13;5.90;;;;;;;;;;4971731;28;20206;-78
2023/11/17 01:04:45;;;;;;;10.30;5.83;;;;;;;;;;4971840;28;20226;-79
2023/11/17 01:07:14;;;;;;;9.57;5.70;;;;;;;;;;4971188;28;20207;-79
2023/11/17 01:09:43;;;;;;;7.23;5.13;;;;;;;;;;4971434;28;20735;-79
2023/11/17 01:12:10;;;;;;;10.73;4.70;;;;;;;;;;4971128;28;20209;-78
2023/11/17 01:14:37;;;;;;;11.30;4.63;;;;;;;;;;4972122;28;20301;-79
2023/11/17 01:17:04;;;;;;;7.97;4.50;;;;;;;;;;4971318;28;20681;-78
2023/11/17 01:19:32;;;;;;;9.47;3.87;;;;;;;;;;4971826;28;20237;-78
2023/11/17 01:21:59;;;;;;;9.73;4.33;;;;;;;;;;4971435;28;20203;-79
2023/11/17 01:24:28;;;;;;;10.13;3.80;;;;;;;;;;4971264;28;20208;-79
2023/11/17 01:26:57;;;;;;;12.17;4.10;;;;;;;;;;4970825;28;20230;-78
2023/11/17 01:29:24;;;;;;;9.40;4.00;;;;;;;;;;4971310;28;20242;-79
2023/11/17 01:31:52;;;;;;;9.60;4.30;;;;;;;;;;4970895;28;20202;-79
2023/11/17 01:34:19;;;;;;;11.10;4.40;;;;;;;;;;4970938;28;20789;-79
2023/11/17 01:36:46;;;;;;;10.40;4.73;;;;;;;;;;4970335;28;20266;-79
2023/11/17 01:39:13;;;;;;;10.83;4.50;;;;;;;;;;4970969;28;20205;-79
2023/11/17 01:41:43;;;;;;;9.47;4.23;;;;;;;;;;4970675;28;20306;-79
2023/11/17 01:44:10;;;;;;;15.83;4.70;;;;;;;;;;4971941;28;20194;-78
2023/11/17 01:46:37;;;;;;;11.13;4.53;;;;;;;;;;4970805;28;20328;-79
2023/11/17 01:49:05;;;;;;;9.63;4.30;;;;;;;;;;4970817;28;20301;-80
2023/11/17 01:51:32;;;;;;;9.43;4.23;;;;;;;;;;4970849;28;20706;-78
2023/11/17 01:54:00;;;;;;;10.07;3.83;;;;;;;;;;4970990;28;20861;-79
2023/11/17 01:56:30;;;;;;;13.30;4.77;;;;;;;;;;4970379;28;20268;-79
2023/11/17 01:58:59;;;;;;;12.70;4.30;;;;;;;;;;4970668;28;20673;-79
2023/11/17 02:01:27;;;;;;;9.53;3.83;;;;;;;;;;4970345;28;20370;-78
2023/11/17 02:03:55;;;;;;;15.33;4.57;;;;;;;;;;4970636;28;20699;-79
2023/11/17 02:06:27;;;;;;;9.20;3.87;;;;;;;;;;4970690;28;20764;-79
2023/11/17 02:09:02;;;;;;;11.30;4.40;;;;;;;;;;4970503;28;20639;-79
2023/11/17 02:11:35;;;;;;;6.87;4.00;;;;;;;;;;4970535;28;20289;-79
2023/11/17 02:14:06;;;;;;;7.77;4.07;;;;;;;;;;5024010;28;20199;-79
2023/11/17 02:16:36;;;;;;;11.33;4.00;;;;;;;;;;5071452;28;20278;-79
2023/11/17 02:19:05;;;;;;;9.63;3.80;;;;;;;;;;5071691;28;20246;-78
2023/11/17 02:21:36;;;;;;;8.57;3.80;;;;;;;;;;5071347;28;20668;-79
2023/11/17 02:24:06;;;;;;;7.73;3.70;;;;;;;;;;5071369;28;20237;-78
2023/11/17 02:26:37;;;;;;;12.97;4.57;;;;;;;;;;5069096;28;20245;-78
2023/11/17 02:29:10;;;;;;;9.77;4.53;;;;;;;;;;5051261;28;20287;-78
2023/11/17 02:31:39;;;;;;;9.13;4.70;;;;;;;;;;5051120;28;20634;-78
2023/11/17 02:34:08;;;;;;;15.77;4.50;;;;;;;;;;5050898;28;20314;-79
2023/11/17 02:36:36;;;;;;;8.57;4.50;;;;;;;;;;5046155;28;20287;-79
2023/11/17 02:39:13;;;;;;;8.13;4.63;;;;;;;;;;5042290;28;20307;-79
2023/11/17 02:41:43;;;;;;;10.77;4.17;;;;;;;;;;5051319;28;20199;-78
2023/11/17 02:44:12;;;;;;;8.17;3.80;;;;;;;;;;5051255;28;20196;-79
2023/11/17 02:46:44;;;;;;;6.50;3.87;;;;;;;;;;5051055;28;20232;-78
2023/11/17 02:49:21;;;;;;;7.83;3.20;;;;;;;;;;5054410;28;20198;-79
2023/11/17 02:51:51;;;;;;;10.57;3.90;;;;;;;;;;5054949;28;20323;-79
2023/11/17 02:54:19;;;;;;;10.07;3.67;;;;;;;;;;5054656;28;20192;-79
2023/11/17 02:56:47;;;;;;;12.43;4.10;;;;;;;;;;5055314;28;20196;-79
2023/11/17 02:59:17;;;;;;;7.83;4.30;;;;;;;;;;5054672;28;20290;-79
2023/11/17 03:01:46;;;;;;;10.87;4.30;;;;;;;;;;5055264;28;20738;-80
2023/11/17 03:04:15;;;;;;;9.63;4.07;;;;;;;;;;5054971;28;20228;-80
2023/11/17 03:06:46;;;;;;;10.00;4.77;;;;;;;;;;5055379;28;20219;-80
2023/11/17 03:09:14;;;;;;;9.63;4.40;;;;;;;;;;5054874;28;20198;-79
2023/11/17 03:11:42;;;;;;;9.67;4.80;;;;;;;;;;5054613;28;20210;-79
2023/11/17 03:14:09;;;;;;;7.90;4.57;;;;;;;;;;5054480;28;20195;-81
2023/11/17 03:16:37;;;;;;;8.73;4.97;;;;;;;;;;5054682;28;20200;-80
2023/11/17 03:19:10;;;;;;;11.13;5.50;;;;;;;;;;5054640;28;20338;-80
2023/11/17 03:21:40;;;;;;;8.30;4.73;;;;;;;;;;5045930;28;20589;-79
2023/11/17 03:24:10;;;;;;;11.27;4.83;;;;;;;;;;5050746;28;20203;-79
2023/11/17 03:26:38;;;;;;;9.10;4.17;;;;;;;;;;5051812;28;20289;-79
2023/11/17 03:29:05;;;;;;;7.33;4.10;;;;;;;;;;5043438;28;20683;-80
2023/11/17 03:31:32;;;;;;;8.07;3.70;;;;;;;;;;5054727;28;20779;-81
2023/11/17 03:34:01;;;;;;;9.70;4.20;;;;;;;;;;5054217;28;20235;-80
2023/11/17 03:36:29;;;;;;;7.80;4.20;;;;;;;;;;5054296;28;20204;-80
2023/11/17 03:38:56;;;;;;;9.90;4.10;;;;;;;;;;5054386;28;20196;-80
2023/11/17 03:41:24;;;;;;;8.90;4.30;;;;;;;;;;5040635;28;20203;-79
2023/11/17 03:43:51;;;;;;;9.03;4.20;;;;;;;;;;5053870;28;20200;-79
2023/11/17 03:46:19;;;;;;;8.13;4.07;;;;;;;;;;5053937;28;20318;-80
2023/11/17 03:48:46;;;;;;;6.33;4.60;;;;;;;;;;5054567;28;20223;-80
2023/11/17 03:51:14;;;;;;;13.63;5.17;;;;;;;;;;5053691;28;20679;-79
2023/11/17 03:53:43;;;;;;;9.30;5.70;;;;;;;;;;5053494;28;20888;-80
2023/11/17 03:56:11;;;;;;;10.23;5.50;;;;;;;;;;5054263;28;20684;-79
2023/11/17 03:58:38;;;;;;;9.63;5.33;;;;;;;;;;5053932;28;20602;-80
2023/11/17 04:01:06;;;;;;;8.37;5.20;;;;;;;;;;5052978;28;20662;-79
2023/11/17 04:03:33;;;;;;;13.13;5.80;;;;;;;;;;5053723;28;20196;-79
2023/11/17 04:06:00;;;;;;;10.60;5.43;;;;;;;;;;5053380;28;20787;-80
2023/11/17 04:08:28;;;;;;;8.90;5.70;;;;;;;;;;5053621;28;20250;-80
2023/11/17 04:10:56;;;;;;;8.97;5.27;;;;;;;;;;5053399;28;20653;-80
2023/11/17 04:13:24;;;;;;;10.77;5.57;;;;;;;;;;5054189;28;20222;-79
2023/11/17 04:15:51;;;;;;;9.20;5.83;;;;;;;;;;5053550;28;20211;-80
2023/11/17 04:18:18;;;;;;;8.73;5.37;;;;;;;;;;5053395;28;20215;-80
2023/11/17 04:20:48;;;;;;;11.33;5.60;;;;;;;;;;5052913;28;20269;-80
2023/11/17 04:23:15;;;;;;;9.77;5.93;;;;;;;;;;5053250;28;20202;-80
2023/11/17 04:25:41;;;;;;;8.23;5.87;;;;;;;;;;5053814;28;20196;-80
2023/11/17 04:28:10;;;;;;;10.50;6.07;;;;;;;;;;5053399;28;20231;-79
2023/11/17 04:30:37;;;;;;;10.27;6.53;;;;;;;;;;5053286;28;20538;-80
2023/11/17 04:33:04;;;;;;;11.93;6.70;;;;;;;;;;5052917;28;20847;-80
2023/11/17 04:35:32;;;;;;;10.87;7.03;;;;;;;;;;5052372;28;20728;-80
2023/11/17 04:37:59;;;;;;;10.63;6.73;;;;;;;;;;5053413;28;20208;-80
2023/11/17 04:40:27;;;;;;;11.37;6.00;;;;;;;;;;5052963;28;20202;-79
2023/11/17 04:42:54;;;;;;;11.63;6.67;;;;;;;;;;5052924;28;20203;-80
2023/11/17 04:45:25;;;;;;;10.87;6.63;;;;;;;;;;5052900;28;20200;-80
2023/11/17 04:47:52;;;;;;;14.77;8.47;;;;;;;;;;5052304;28;20235;-79
2023/11/17 04:50:19;;;;;;;12.80;8.00;;;;;;;;;;5052380;28;20237;-80
2023/11/17 04:52:47;;;;;;;13.03;7.47;;;;;;;;;;5052996;28;20286;-80
2023/11/17 04:55:14;;;;;;;12.73;7.43;;;;;;;;;;5052485;28;20266;-80
2023/11/17 04:57:41;;;;;;;13.30;7.40;;;;;;;;;;5052785;28;20200;-80
2023/11/17 05:00:16;;;;;;;12.23;6.50;;;;;;;;;;5052750;28;20200;-79
2023/11/17 05:02:46;;;;;;;10.10;6.80;;;;;;;;;;5052467;28;20203;-80
2023/11/17 05:05:14;;;;;;;12.13;7.60;;;;;;;;;;5052990;28;20208;-79
2023/11/17 05:07:43;;;;;;;11.57;7.63;;;;;;;;;;5051733;28;20237;-79
2023/11/17 05:10:11;;;;;;;11.90;8.43;;;;;;;;;;5052999;28;20196;-79
2023/11/17 05:12:40;;;;;;;11.93;8.27;;;;;;;;;;5052211;28;20200;-79
2023/11/17 05:15:12;;;;;;;12.47;8.43;;;;;;;;;;5052023;28;20671;-79
2023/11/17 05:17:43;;;;;;;15.67;9.70;;;;;;;;;;5051848;28;20204;-80
2023/11/17 05:20:14;;;;;;;14.83;10.17;;;;;;;;;;5052503;28;20257;-79
2023/11/17 05:22:41;;;;;;;14.17;9.97;;;;;;;;;;5052070;28;20201;-80
2023/11/17 05:25:09;;;;;;;17.73;9.13;;;;;;;;;;5052246;28;20615;-80
2023/11/17 05:27:37;;;;;;;18.17;8.87;;;;;;;;;;5052570;28;20300;-79
2023/11/17 05:30:06;;;;;;;11.37;7.50;;;;;;;;;;5052220;28;20227;-79
2023/11/17 05:32:33;;;;;;;10.80;6.90;;;;;;;;;;5051637;28;20690;-79
2023/11/17 05:35:01;;;;;;;13.27;6.90;;;;;;;;;;5051921;28;20287;-79
2023/11/17 05:37:29;;;;;;;12.60;7.30;;;;;;;;;;5051894;28;20238;-80
2023/11/17 05:39:57;;;;;;;12.30;7.20;;;;;;;;;;5051652;28;20322;-80
2023/11/17 05:42:24;;;;;;;10.97;7.60;;;;;;;;;;5052914;28;20265;-80
2023/11/17 05:44:51;;;;;;;12.03;7.30;;;;;;;;;;5052175;28;20287;-80
2023/11/17 05:47:19;;;;;;;10.23;6.60;;;;;;;;;;5051562;28;20722;-80
2023/11/17 05:49:47;;;;;;;12.70;7.73;;;;;;;;;;5052057;28;20207;-80
2023/11/17 05:52:14;;;;;;;11.97;7.97;;;;;;;;;;5051454;28;20732;-79
2023/11/17 05:54:43;;;;;;;11.53;6.90;;;;;;;;;;5046558;28;20249;-79
2023/11/17 05:57:12;;;;;;;10.47;7.07;;;;;;;;;;5051536;28;20668;-81
2023/11/17 05:59:39;;;;;;;8.90;6.00;;;;;;;;;;5051479;28;20664;-81
2023/11/17 06:02:06;;;;;;;14.57;6.40;;;;;;;;;;5051416;28;20703;-78
2023/11/17 06:04:33;;;;;;;10.50;6.10;;;;;;;;;;5033844;28;20232;-80
2023/11/17 06:07:01;;;;;;;10.40;6.40;;;;;;;;;;5051473;28;20220;-80
2023/11/17 06:09:29;;;;;;;11.73;6.37;;;;;;;;;;5051531;28;20203;-79
2023/11/17 06:11:58;;;;;;;11.73;7.13;;;;;;;;;;5051790;28;20291;-78
2023/11/17 06:14:27;;;;;;;15.73;7.97;;;;;;;;;;5050674;28;20239;-80
2023/11/17 06:16:55;;;;;;;9.40;7.57;;;;;;;;;;5032360;28;20677;-79
2023/11/17 06:19:22;;;;;;;14.13;7.87;;;;;;;;;;5038137;28;20200;-79
2023/11/17 06:21:50;;;;;;;14.17;8.33;;;;;;;;;;5041464;28;20211;-80
2023/11/17 06:24:18;;;;;;;19.33;10.37;;;;;;;;;;5035578;28;20246;-80
2023/11/17 06:26:46;;;;;;;20.00;11.40;;;;;;;;;;5034481;28;20705;-80
2023/11/17 06:29:15;;;;;;;18.67;9.47;;;;;;;;;;5031199;28;20219;-79
2023/11/17 06:31:42;;;;;;;15.70;8.57;;;;;;;;;;5030960;28;20641;-80
2023/11/17 06:34:10;;;;;;;11.90;8.10;;;;;;;;;;5035973;28;20232;-80
2023/11/17 06:36:40;;;;;;;10.70;7.47;;;;;;;;;;5034969;28;20661;-79
2023/11/17 06:39:14;;;;;;;11.47;7.33;;;;;;;;;;5049116;28;20214;-79
2023/11/17 06:41:42;;;;;;;14.17;8.47;;;;;;;;;;5051030;28;20253;-80
2023/11/17 06:44:10;;;;;;;14.93;7.80;;;;;;;;;;5051383;28;20242;-80
2023/11/17 06:46:41;;;;;;;13.57;8.13;;;;;;;;;;5033490;28;20203;-79
2023/11/17 06:49:09;;;;;;;12.40;9.00;;;;;;;;;;5051449;28;20290;-80
2023/11/17 06:51:38;;;;;;;16.03;9.17;;;;;;;;;;5051208;28;20196;-80
2023/11/17 06:54:10;;;;;;;17.73;9.93;;;;;;;;;;5051391;28;20222;-80
2023/11/17 06:56:37;;;;;;;16.00;10.13;;;;;;;;;;5051252;28;20198;-79
2023/11/17 06:59:04;;;;;;;13.10;9.10;;;;;;;;;;5050852;28;20660;-80
2023/11/17 07:01:32;;;;;;;14.80;9.30;;;;;;;;;;5050885;28;20196;-80
2023/11/17 07:04:02;;;;;;;14.97;9.23;;;;;;;;;;5050998;28;20207;-79
2023/11/17 07:06:30;;;;;;;14.33;9.67;;;;;;;;;;5051607;28;20199;-80
2023/11/17 07:08:58;;;;;;;12.87;9.53;;;;;;;;;;5051428;28;20232;-80
2023/11/17 07:11:25;;;;;;;15.60;9.30;;;;;;;;;;5051116;28;20196;-79
2023/11/17 07:13:54;;;;;;;19.77;11.50;;;;;;;;;;5050734;28;20219;-79
2023/11/17 07:16:21;;;;;;;16.57;10.87;;;;;;;;;;5051128;28;20245;-80
2023/11/17 07:18:48;;;;;;;16.50;9.97;;;;;;;;;;5051109;28;20282;-80
2023/11/17 07:21:17;;;;;;;14.30;10.17;;;;;;;;;;5050665;28;20242;-80
2023/11/17 07:23:45;;;;;;;15.83;10.50;;;;;;;;;;5051183;28;20200;-79
2023/11/17 07:26:17;;;;;;;17.27;11.10;;;;;;;;;;5050789;28;20198;-80
2023/11/17 07:28:46;;;;;;;16.97;11.50;;;;;;;;;;5051044;28;20238;-79
2023/11/17 07:31:15;;;;;;;17.57;11.70;;;;;;;;;;5050405;28;20204;-79
2023/11/17 07:33:42;;;;;;;19.17;11.80;;;;;;;;;;5050466;28;20262;-79
2023/11/17 07:36:10;;;;;;;16.60;11.43;;;;;;;;;;5053583;28;20230;-79
2023/11/17 07:38:39;;;;;;;13.87;12.10;;;;;;;;;;5054478;28;20196;-80
2023/11/17 07:41:07;;;;;;;15.87;11.93;;;;;;;;;;5054335;28;20217;-80
2023/11/17 07:43:34;;;;;;;18.80;13.23;;;;;;;;;;5054018;28;20713;-79
2023/11/17 07:46:01;;;;;;;21.17;13.70;;;;;;;;;;5054511;28;20308;-79
2023/11/17 07:48:31;;;;;;;18.07;12.00;;;;;;;;;;5054584;28;20242;-80
2023/11/17 07:51:00;;;;;;;17.00;11.67;;;;;;;;;;5054636;28;20683;-80
2023/11/17 07:53:28;;;;;;;12.53;10.40;;;;;;;;;;5054308;28;20221;-80
2023/11/17 07:55:58;;;;;;;16.50;10.87;;;;;;;;;;5054449;28;20196;-81
2023/11/17 07:58:26;;;;;;;17.83;9.63;;;;;;;;;;5053970;28;20188;-79
2023/11/17 08:00:54;;;;;;;17.13;9.30;;;;;;;;;;5054496;28;20195;-79
2023/11/17 08:03:22;;;;;;;13.40;9.47;;;;;;;;;;5054155;28;20247;-79
2023/11/17 08:05:49;;;;;;;17.00;9.27;;;;;;;;;;5053849;28;20211;-80
2023/11/17 08:08:17;;;;;;;15.03;9.37;;;;;;;;;;5054633;28;20223;-80
2023/11/17 08:10:46;;;;;;;12.77;8.83;;;;;;;;;;5054281;28;20234;-78
2023/11/17 08:13:15;;;;;;;15.80;8.50;;;;;;;;;;5053300;28;20243;-80
2023/11/17 08:15:42;;;;;;;13.47;9.13;;;;;;;;;;5053672;28;20757;-80
2023/11/17 08:18:09;;;;;;;19.17;10.40;;;;;;;;;;5054517;28;20283;-80
2023/11/17 08:20:41;;;;;;;14.30;9.47;;;;;;;;;;5053887;28;20276;-80
2023/11/17 08:23:08;;;;;;;17.50;10.17;;;;;;;;;;5053840;28;20199;-79
2023/11/17 08:25:35;;;;;;;11.07;9.30;;;;;;;;;;5053712;28;20207;-79
2023/11/17 08:28:03;;;;;;;12.83;7.93;;;;;;;;;;5053359;28;20266;-79
2023/11/17 08:30:31;;;;;;;10.77;8.20;;;;;;;;;;5053252;28;20200;-80
2023/11/17 08:32:58;;;;;;;11.80;7.23;;;;;;;;;;5053410;28;20267;-80
2023/11/17 08:35:26;;;;;;;14.45;7.18;;;;;;;;;;5053269;28;20246;-80
2023/11/17 08:37:53;;;;;;;8.68;6.20;;;;;;;;;;5053357;28;20206;-78
2023/11/17 08:40:20;;;;;;;9.88;6.50;;;;;;;;;;5053658;28;20200;-77
2023/11/17 08:42:49;;;;;;;8.55;6.22;;;;;;;;;;5052943;28;20296;-78
2023/11/17 08:45:16;;;;;;;10.95;5.90;;;;;;;;;;5053338;28;20624;-77
2023/11/17 08:47:46;;;;;;;10.07;5.90;;;;;;;;;;5053337;28;20224;-77
2023/11/17 08:50:14;;;;;;;13.25;6.30;;;;;;;;;;5052926;28;20302;-78
2023/11/17 08:52:42;;;;;;;9.77;6.03;;;;;;;;;;5053403;28;20283;-80
2023/11/17 08:55:13;;;;;;;11.85;6.65;;;;;;;;;;5052687;28;20204;-80
2023/11/17 08:57:41;;;;;;;9.45;6.55;;;;;;;;;;5053334;28;20230;-79
2023/11/17 09:00:12;;;;;;;8.35;5.85;;;;;;;;;;5052838;28;20279;-78
2023/11/17 09:02:40;;;;;;;8.70;5.30;;;;;;;;;;5053096;28;20195;-77
2023/11/17 09:05:09;;;;;;;9.00;5.80;;;;;;;;;;5052867;28;20200;-78
2023/11/17 09:07:40;;;;;;;8.55;5.53;;;;;;;;;;5052702;28;20226;-79
2023/11/17 09:10:09;;;;;;;7.05;4.85;;;;;;;;;;5052717;28;20202;-78
2023/11/17 09:12:42;;;;;;;7.90;4.97;;;;;;;;;;5052940;28;20720;-77
2023/11/17 09:15:09;;;;;;;10.48;5.13;;;;;;;;;;5052686;28;20195;-78
2023/11/17 09:17:40;;;;;;;8.68;5.20;;;;;;;;;;5052784;28;20195;-78
2023/11/17 09:20:13;;;;;;;8.55;4.70;;;;;;;;;;5052905;28;20322;-77
2023/11/17 09:22:40;;;;;;;7.75;4.35;;;;;;;;;;5052736;28;20200;-77
2023/11/17 09:25:13;;;;;;;8.10;4.90;;;;;;;;;;5052185;28;20206;-78
2023/11/17 09:27:41;;;;;;;6.55;4.90;;;;;;;;;;5052431;28;20204;-77
2023/11/17 09:30:12;;;;;;;9.60;4.80;;;;;;;;;;5052428;28;20207;-78
2023/11/17 09:32:39;;;;;;;8.68;5.00;;;;;;;;;;5051947;28;20215;-77
2023/11/17 09:35:13;;;;;;;8.00;4.80;;;;;;;;;;5052171;28;20227;-77
2023/11/17 09:37:46;;;;;;;11.77;6.30;;;;;;;;;;5052280;28;20212;-77
2023/11/17 09:40:15;;;;;;;11.50;6.40;;;;;;;;;;5051880;28;20664;-78
2023/11/17 09:42:44;;;;;;;8.93;6.57;;;;;;;;;;5034567;28;20207;-78
2023/11/17 09:45:16;;;;;;;13.07;7.53;;;;;;;;;;5052107;28;20204;-77
2023/11/17 09:47:46;;;;;;;13.45;8.15;;;;;;;;;;5051848;28;20195;-77
2023/11/17 09:50:13;;;;;;;11.70;8.15;;;;;;;;;;5052046;28;20227;-78
2023/11/17 09:52:45;;;;;;;9.05;6.28;;;;;;;;;;5051884;28;20290;-77
2023/11/17 09:55:14;;;;;;;9.23;5.72;;;;;;;;;;5051798;28;20200;-78
2023/11/17 09:57:45;;;;;;;8.00;5.45;;;;;;;;;;5051343;28;20283;-77
2023/11/17 10:00:17;;;;;;;10.23;5.90;;;;;;;;;;5051650;28;20246;-78
2023/11/17 10:02:47;;;;;;;9.00;5.20;;;;;;;;;;5052681;28;20196;-78
2023/11/17 10:05:14;;;;;;;10.57;5.35;;;;;;;;;;5051641;28;20200;-78
2023/11/17 10:07:44;;;;;;;12.30;5.25;;;;;;;;;;5051140;28;20204;-78
2023/11/17 10:10:14;;;;;;;9.68;5.15;;;;;;;;;;5052072;28;20196;-78
2023/11/17 10:12:43;;;;;;;11.80;5.20;;;;;;;;;;5051705;28;20219;-78
2023/11/17 10:15:12;;;;;;;9.68;4.88;;;;;;;;;;5052186;28;20251;-78
2023/11/17 10:17:40;;;;;;;8.95;3.88;;;;;;;;;;5051812;28;20667;-78
2023/11/17 10:20:17;;;;;;;7.57;3.15;;;;;;;;;;5051962;28;20665;-77
2023/11/17 10:22:45;;;;;;;9.93;3.17;;;;;;;;;;5051803;28;20926;-78
2023/11/17 10:25:13;;;;;;;7.45;2.90;;;;;;;;;;5051877;28;20196;-79
2023/11/17 10:27:44;;;;;;;8.95;2.85;;;;;;;;;;5051211;28;20195;-78
2023/11/17 10:30:12;;;;;;;7.88;2.85;;;;;;;;;;5051331;28;20195;-78
2023/11/17 10:32:40;;;;;;;6.78;2.30;;;;;;;;;;5051610;28;20204;-79
2023/11/17 10:35:13;;;;;;;6.47;2.20;;;;;;;;;;5061442;28;20259;-79
2023/11/17 10:37:40;;;;;;;9.93;2.17;;;;;;;;;;5071425;28;20196;-79
2023/11/17 10:40:10;;;;;;;9.65;2.65;;;;;;;;;;5071767;28;20228;-78
2023/11/17 10:42:37;;;;;;;7.40;2.15;;;;;;;;;;5071472;28;20195;-78
2023/11/17 10:45:16;;;;;;;6.55;1.70;;;;;;;;;;5071185;28;20236;-78
2023/11/17 10:47:44;;;;;;;7.95;1.80;;;;;;;;;;5071032;28;20584;-77
2023/11/17 10:50:12;;;;;;;9.15;2.10;;;;;;;;;;5071435;28;20235;-78
2023/11/17 10:52:39;;;;;;;6.75;2.03;;;;;;;;;;5071067;28;20608;-78
2023/11/17 10:55:07;;;;;;;8.80;2.65;;;;;;;;;;5072085;28;20264;-78
2023/11/17 10:57:36;;;;;;;7.25;2.22;;;;;;;;;;5071313;28;20199;-77
2023/11/17 11:00:17;;;;;;;5.60;2.38;;;;;;;;;;5070982;28;20211;-79
2023/11/17 11:02:50;;;;;;;7.85;1.85;;;;;;;;;;5071533;28;20191;-78
2023/11/17 11:05:17;;;;;;;7.22;1.80;;;;;;;;;;5071448;28;20210;-78
2023/11/17 11:07:44;;;;;;;5.63;1.88;;;;;;;;;;5070482;28;20199;-78
2023/11/17 11:10:15;;;;;;;8.68;1.55;;;;;;;;;;5074540;28;20233;-78
2023/11/17 11:12:47;;;;;;;4.45;1.70;;;;;;;;;;5057094;28;20248;-78
2023/11/17 11:15:15;;;;;;;7.50;1.85;;;;;;;;;;5075173;28;20298;-78
2023/11/17 11:17:52;;;;;;;6.32;1.58;;;;;;;;;;5071120;28;20294;-78
2023/11/17 11:20:21;;;;;;;10.70;2.10;;;;;;;;;;5054853;28;20200;-80
2023/11/17 11:22:48;;;;;;;4.65;1.75;;;;;;;;;;5055023;28;20196;-80
2023/11/17 11:25:16;;;;;;;6.40;1.70;;;;;;;;;;5054728;28;20283;-78
2023/11/17 11:27:45;;;;;;;7.82;1.52;;;;;;;;;;5054752;28;20646;-78
2023/11/17 11:30:15;;;;;;;6.93;1.67;;;;;;;;;;5054632;28;20258;-78
2023/11/17 11:32:44;;;;;;;11.18;3.15;;;;;;;;;;5054914;28;20206;-78
2023/11/17 11:35:12;;;;;;;8.82;3.15;;;;;;;;;;5053874;28;20241;-78
2023/11/17 11:37:39;;;;;;;5.53;1.90;;;;;;;;;;5054673;28;20234;-79
2023/11/17 11:40:11;;;;;;;9.10;2.03;;;;;;;;;;5054742;28;20210;-78
2023/11/17 11:42:41;;;;;;;8.65;2.10;;;;;;;;;;5054647;28;20294;-79
2023/11/17 11:45:16;;;;;;;5.57;1.60;;;;;;;;;;5054332;28;20195;-76
2023/11/17 11:47:45;;;;;;;7.18;1.52;;;;;;;;;;5054244;28;20195;-78
2023/11/17 11:50:13;;;;;;;7.75;1.70;;;;;;;;;;5053660;28;20227;-78
2023/11/17 11:52:45;;;;;;;7.45;1.77;;;;;;;;;;5054342;28;20286;-80
2023/11/17 11:55:16;;;;;;;6.07;1.50;;;;;;;;;;5054100;28;20640;-78
2023/11/17 11:57:58;;;;;;;5.57;1.60;;;;;;;;;;5054029;28;20227;-80
2023/11/17 12:00:27;;;;;;;6.78;1.60;;;;;;;;;;5036009;28;20235;-78
2023/11/17 12:02:54;;;;;;;4.38;1.10;;;;;;;;;;5054146;28;20231;-78
2023/11/17 12:05:28;;;;;;;6.18;1.45;;;;;;;;;;5054005;28;20199;-77
2023/11/17 12:07:57;;;;;;;8.05;1.63;;;;;;;;;;5035954;28;20282;-78
2023/11/17 12:10:25;;;;;;;9.13;1.27;;;;;;;;;;5053919;28;20297;-78
2023/11/17 12:12:53;;;;;;;9.85;1.40;;;;;;;;;;5054180;28;20243;-78
2023/11/17 12:15:21;;;;;;;4.53;1.30;;;;;;;;;;5053841;28;20198;-78
2023/11/17 12:17:53;;;;;;;6.22;1.50;;;;;;;;;;5054246;28;20621;-79
2023/11/17 12:20:21;;;;;;;7.85;1.70;;;;;;;;;;5053114;28;20196;-79
2023/11/17 12:22:58;;;;;;;5.03;1.30;;;;;;;;;;5053845;28;20200;-78
2023/11/17 12:25:25;;;;;;;8.60;1.30;;;;;;;;;;5053576;28;20195;-79
2023/11/17 12:27:53;;;;;;;6.72;1.63;;;;;;;;;;5053457;28;20295;-79
2023/11/17 12:30:21;;;;;;;4.68;1.17;;;;;;;;;;5053621;28;20227;-78
2023/11/17 12:32:51;;;;;;;8.43;2.00;;;;;;;;;;5053266;28;20196;-78
2023/11/17 12:35:20;;;;;;;7.18;2.40;;;;;;;;;;5053876;28;20231;-77
2023/11/17 12:37:47;;;;;;;7.85;1.50;;;;;;;;;;5053501;28;20274;-78
2023/11/17 12:40:15;;;;;;;5.32;1.20;;;;;;;;;;5053723;28;20250;-78
2023/11/17 12:42:43;;;;;;;4.88;1.42;;;;;;;;;;5053865;28;20308;-76
2023/11/17 12:45:12;;;;;;;6.15;1.42;;;;;;;;;;5053527;28;20253;-78
2023/11/17 12:47:40;;;;;;;8.70;2.00;;;;;;;;;;5052994;28;20218;-77
2023/11/17 12:50:11;;;;;;;8.85;2.40;;;;;;;;;;5053404;28;20310;-80
2023/11/17 12:52:38;;;;;;;7.18;1.40;;;;;;;;;;5053240;28;20203;-80
2023/11/17 12:55:07;;;;;;;5.57;1.50;;;;;;;;;;5052804;28;20227;-78
2023/11/17 12:57:35;;;;;;;4.85;1.27;;;;;;;;;;5053102;28;20204;-77
2023/11/17 13:00:13;;;;;;;6.47;1.52;;;;;;;;;;5053391;28;20207;-78
2023/11/17 13:02:41;;;;;;;5.22;1.30;;;;;;;;;;5052859;28;20204;-77
2023/11/17 13:05:10;;;;;;;4.20;1.15;;;;;;;;;;5052998;28;20287;-78
2023/11/17 13:07:37;;;;;;;6.80;1.30;;;;;;;;;;5052624;28;20725;-78
2023/11/17 13:10:05;;;;;;;4.63;1.20;;;;;;;;;;5053163;28;20228;-77
2023/11/17 13:12:33;;;;;;;4.53;1.30;;;;;;;;;;5053020;28;20290;-78
2023/11/17 13:15:05;;;;;;;5.82;1.10;;;;;;;;;;5052738;28;20204;-78
2023/11/17 13:17:34;;;;;;;5.05;1.13;;;;;;;;;;5052543;28;20217;-78
2023/11/17 13:20:02;;;;;;;4.60;1.20;;;;;;;;;;5052646;28;20204;-77
2023/11/17 13:22:31;;;;;;;8.35;2.03;;;;;;;;;;5052437;28;20661;-78
2023/11/17 13:25:03;;;;;;;8.05;1.17;;;;;;;;;;5052235;28;20758;-78
2023/11/17 13:27:30;;;;;;;6.03;1.60;;;;;;;;;;5052752;28;20192;-78
2023/11/17 13:29:59;;;;;;;3.38;1.35;;;;;;;;;;5052386;28;20278;-78
2023/11/17 13:32:26;;;;;;;5.85;1.45;;;;;;;;;;5051015;28;20232;-78
2023/11/17 13:34:56;;;;;;;5.93;1.30;;;;;;;;;;5052207;28;20277;-78
2023/11/17 13:37:28;;;;;;;7.10;1.17;;;;;;;;;;5052648;28;20230;-78
2023/11/17 13:39:57;;;;;;;5.97;1.27;;;;;;;;;;5052131;28;20578;-78
2023/11/17 13:42:24;;;;;;;6.45;1.13;;;;;;;;;;5052539;28;20199;-78
2023/11/17 13:44:52;;;;;;;5.15;0.90;;;;;;;;;;5052477;28;20195;-78
2023/11/17 13:47:19;;;;;;;7.40;1.52;;;;;;;;;;5052485;28;20626;-78
2023/11/17 13:49:47;;;;;;;3.72;1.10;;;;;;;;;;5050943;28;20775;-78
2023/11/17 13:52:14;;;;;;;7.35;1.73;;;;;;;;;;5052177;28;20199;-78
2023/11/17 13:54:43;;;;;;;4.03;0.90;;;;;;;;;;5052188;28;20288;-78
2023/11/17 13:57:11;;;;;;;5.82;1.10;;;;;;;;;;5052331;28;20615;-78
2023/11/17 13:59:38;;;;;;;4.15;0.80;;;;;;;;;;5051397;28;20200;-78
2023/11/17 14:02:08;;;;;;;6.65;1.23;;;;;;;;;;5052151;28;20232;-78
2023/11/17 14:04:36;;;;;;;8.48;1.35;;;;;;;;;;5051573;28;20206;-78
2023/11/17 14:07:03;;;;;;;4.78;1.15;;;;;;;;;;5052136;28;20211;-79
2023/11/17 14:09:31;;;;;;;5.10;1.10;;;;;;;;;;5051767;28;20349;-78
2023/11/17 14:12:03;;;;;;;4.75;0.88;;;;;;;;;;5051903;28;20195;-79
2023/11/17 14:14:32;;;;;;;3.00;1.00;;;;;;;;;;5051730;28;20200;-78
2023/11/17 14:17:05;;;;;;;5.50;1.10;;;;;;;;;;5051709;28;20310;-78
2023/11/17 14:19:33;;;;;;;5.18;1.38;;;;;;;;;;5051811;28;20199;-78
2023/11/17 14:22:01;;;;;;;6.53;1.17;;;;;;;;;;5051717;28;20200;-78
2023/11/17 14:24:28;;;;;;;3.13;0.88;;;;;;;;;;5051527;28;20219;-78
2023/11/17 14:26:59;;;;;;;7.63;1.50;;;;;;;;;;5051221;28;20200;-78
2023/11/17 14:29:31;;;;;;;5.22;1.30;;;;;;;;;;5051557;28;20313;-78
2023/11/17 14:31:59;;;;;;;7.07;1.92;;;;;;;;;;5051690;28;20614;-77
2023/11/17 14:34:29;;;;;;;5.30;1.20;;;;;;;;;;5051061;28;20229;-78
2023/11/17 14:36:57;;;;;;;3.25;1.00;;;;;;;;;;5051353;28;20602;-78
2023/11/17 14:39:26;;;;;;;3.55;0.80;;;;;;;;;;5051646;28;20203;-78
2023/11/17 14:41:53;;;;;;;3.65;1.20;;;;;;;;;;5051748;28;20290;-78
2023/11/17 14:44:20;;;;;;;4.95;1.02;;;;;;;;;;5052687;28;20238;-78